sensor_id;sensor_type;location;lat;lon;timestamp;pressure;altitude;pressure_sealevel;temperature;humidity
77005;BME280;67261;53.132;18.006;2023-02-21T00:01:58;99875.50;;;7.21;73.15
77005;BME280;67261;53.132;18.006;2023-02-21T00:04:44;99878.54;;;7.21;73.35
77005;BME280;67261;53.132;18.006;2023-02-21T00:07:32;99875.79;;;7.20;73.29
77005;BME280;67261;53.132;18.006;2023-02-21T00:10:18;99875.42;;;7.18;73.25
77005;BME280;67261;53.132;18.006;2023-02-21T00:13:05;99881.96;;;7.16;73.36
77005;BME280;67261;53.132;18.006;2023-02-21T00:15:51;99885.92;;;7.13;73.21
77005;BME280;67261;53.132;18.006;2023-02-21T00:18:37;99885.95;;;7.12;73.07
77005;BME280;67261;53.132;18.006;2023-02-21T00:21:23;99874.02;;;7.11;72.55
77005;BME280;67261;53.132;18.006;2023-02-21T00:24:16;99874.48;;;7.13;72.29
77005;BME280;67261;53.132;18.006;2023-02-21T00:27:03;99873.98;;;7.15;72.00
77005;BME280;67261;53.132;18.006;2023-02-21T00:29:50;99876.08;;;7.15;71.72
77005;BME280;67261;53.132;18.006;2023-02-21T00:32:36;99873.02;;;7.14;71.57
77005;BME280;67261;53.132;18.006;2023-02-21T00:35:22;99872.19;;;7.14;71.07
77005;BME280;67261;53.132;18.006;2023-02-21T00:38:09;99871.73;;;7.13;71.35
77005;BME280;67261;53.132;18.006;2023-02-21T00:40:56;99866.12;;;7.15;70.81
77005;BME280;67261;53.132;18.006;2023-02-21T00:43:42;99868.06;;;7.18;70.41
77005;BME280;67261;53.132;18.006;2023-02-21T00:46:28;99864.86;;;7.18;70.40
77005;BME280;67261;53.132;18.006;2023-02-21T00:49:13;99866.55;;;7.19;69.71
77005;BME280;67261;53.132;18.006;2023-02-21T00:52:00;99869.88;;;7.19;69.07
77005;BME280;67261;53.132;18.006;2023-02-21T00:54:46;99868.79;;;7.19;69.19
77005;BME280;67261;53.132;18.006;2023-02-21T00:57:32;99868.78;;;7.18;69.15
77005;BME280;67261;53.132;18.006;2023-02-21T01:00:21;99869.16;;;7.16;68.97
77005;BME280;67261;53.132;18.006;2023-02-21T01:03:09;99875.60;;;7.17;68.86
77005;BME280;67261;53.132;18.006;2023-02-21T01:05:56;99876.05;;;7.19;68.54
77005;BME280;67261;53.132;18.006;2023-02-21T01:08:43;99878.02;;;7.21;67.55
77005;BME280;67261;53.132;18.006;2023-02-21T01:11:32;99882.98;;;7.22;67.26
77005;BME280;67261;53.132;18.006;2023-02-21T01:14:17;99886.23;;;7.23;66.81
77005;BME280;67261;53.132;18.006;2023-02-21T01:17:03;99878.42;;;7.22;66.38
77005;BME280;67261;53.132;18.006;2023-02-21T01:19:49;99882.48;;;7.18;66.59
77005;BME280;67261;53.132;18.006;2023-02-21T01:22:36;99888.88;;;7.14;66.77
77005;BME280;67261;53.132;18.006;2023-02-21T01:25:22;99887.24;;;7.09;66.72
77005;BME280;67261;53.132;18.006;2023-02-21T01:28:08;99880.00;;;7.06;66.76
77005;BME280;67261;53.132;18.006;2023-02-21T01:30:54;99889.30;;;7.04;67.19
77005;BME280;67261;53.132;18.006;2023-02-21T01:33:41;99895.13;;;7.01;67.11
77005;BME280;67261;53.132;18.006;2023-02-21T01:36:28;99905.21;;;6.97;66.83
77005;BME280;67261;53.132;18.006;2023-02-21T01:39:14;99905.50;;;6.94;66.68
77005;BME280;67261;53.132;18.006;2023-02-21T01:42:00;99909.37;;;6.94;66.48
77005;BME280;67261;53.132;18.006;2023-02-21T01:44:48;99905.89;;;6.95;66.02
77005;BME280;67261;53.132;18.006;2023-02-21T01:47:34;99910.98;;;6.97;66.27
77005;BME280;67261;53.132;18.006;2023-02-21T01:50:24;99912.34;;;6.97;66.63
77005;BME280;67261;53.132;18.006;2023-02-21T01:53:19;99913.70;;;7.00;66.80
77005;BME280;67261;53.132;18.006;2023-02-21T01:56:06;99909.55;;;7.02;67.03
77005;BME280;67261;53.132;18.006;2023-02-21T01:58:56;99910.56;;;7.05;67.17
77005;BME280;67261;53.132;18.006;2023-02-21T02:01:48;99908.86;;;7.04;67.26
77005;BME280;67261;53.132;18.006;2023-02-21T02:04:34;99912.39;;;7.04;67.02
77005;BME280;67261;53.132;18.006;2023-02-21T02:07:20;99911.76;;;7.03;66.89
77005;BME280;67261;53.132;18.006;2023-02-21T02:10:06;99916.34;;;7.03;67.15
77005;BME280;67261;53.132;18.006;2023-02-21T02:21:50;99910.89;;;7.01;66.04
77005;BME280;67261;53.132;18.006;2023-02-21T02:24:57;99906.88;;;7.03;66.16
77005;BME280;67261;53.132;18.006;2023-02-21T02:27:46;99908.88;;;7.02;65.86
77005;BME280;67261;53.132;18.006;2023-02-21T02:30:40;99905.02;;;7.02;65.56
77005;BME280;67261;53.132;18.006;2023-02-21T02:36:04;99904.92;;;7.01;65.13
77005;BME280;67261;53.132;18.006;2023-02-21T02:38:37;99916.98;;;7.00;65.43
77005;BME280;67261;53.132;18.006;2023-02-21T02:43:50;99911.13;;;6.97;64.25
77005;BME280;67261;53.132;18.006;2023-02-21T02:46:24;99911.31;;;6.97;64.33
77005;BME280;67261;53.132;18.006;2023-02-21T02:49:04;99909.98;;;6.96;64.48
77005;BME280;67261;53.132;18.006;2023-02-21T02:51:32;99914.23;;;6.99;64.52
77005;BME280;67261;53.132;18.006;2023-02-21T02:54:03;99911.98;;;7.01;64.18
77005;BME280;67261;53.132;18.006;2023-02-21T02:56:30;99906.94;;;7.00;63.89
77005;BME280;67261;53.132;18.006;2023-02-21T02:59:10;99907.39;;;7.00;64.23
77005;BME280;67261;53.132;18.006;2023-02-21T03:15:54;99885.66;;;6.58;65.98
77005;BME280;67261;53.132;18.006;2023-02-21T03:18:33;99889.87;;;6.51;66.13
77005;BME280;67261;53.132;18.006;2023-02-21T03:21:05;99891.71;;;6.44;66.32
77005;BME280;67261;53.132;18.006;2023-02-21T03:23:34;99887.17;;;6.42;66.39
77005;BME280;67261;53.132;18.006;2023-02-21T03:26:07;99884.66;;;6.39;66.46
77005;BME280;67261;53.132;18.006;2023-02-21T03:28:38;99894.11;;;6.41;66.53
77005;BME280;67261;53.132;18.006;2023-02-21T03:31:07;99893.83;;;6.39;66.58
77005;BME280;67261;53.132;18.006;2023-02-21T03:33:36;99902.36;;;6.36;66.57
77005;BME280;67261;53.132;18.006;2023-02-21T03:36:07;99905.61;;;6.33;66.54
77005;BME280;67261;53.132;18.006;2023-02-21T03:38:36;99901.68;;;6.33;66.57
77005;BME280;67261;53.132;18.006;2023-02-21T03:41:05;99897.17;;;6.30;66.60
77005;BME280;67261;53.132;18.006;2023-02-21T03:43:36;99905.59;;;6.26;66.74
77005;BME280;67261;53.132;18.006;2023-02-21T03:46:04;99903.41;;;6.23;66.61
77005;BME280;67261;53.132;18.006;2023-02-21T03:48:31;99892.57;;;6.21;66.53
77005;BME280;67261;53.132;18.006;2023-02-21T03:51:15;99895.86;;;6.18;66.59
77005;BME280;67261;53.132;18.006;2023-02-21T03:53:43;99902.03;;;6.16;66.68
77005;BME280;67261;53.132;18.006;2023-02-21T03:56:11;99906.89;;;6.16;66.64
77005;BME280;67261;53.132;18.006;2023-02-21T03:59:01;99913.42;;;6.19;66.24
77005;BME280;67261;53.132;18.006;2023-02-21T04:01:29;99915.53;;;6.23;66.23
77005;BME280;67261;53.132;18.006;2023-02-21T04:03:56;99915.91;;;6.27;66.26
77005;BME280;67261;53.132;18.006;2023-02-21T04:06:24;99916.73;;;6.29;66.35
77005;BME280;67261;53.132;18.006;2023-02-21T04:08:51;99921.83;;;6.31;66.07
77005;BME280;67261;53.132;18.006;2023-02-21T04:11:20;99931.08;;;6.34;66.04
77005;BME280;67261;53.132;18.006;2023-02-21T04:13:48;99926.27;;;6.36;66.16
77005;BME280;67261;53.132;18.006;2023-02-21T04:16:16;99914.55;;;6.39;66.19
77005;BME280;67261;53.132;18.006;2023-02-21T04:18:43;99928.61;;;6.41;66.02
77005;BME280;67261;53.132;18.006;2023-02-21T04:21:17;99929.42;;;6.43;66.24
77005;BME280;67261;53.132;18.006;2023-02-21T04:23:44;99920.09;;;6.45;66.24
77005;BME280;67261;53.132;18.006;2023-02-21T04:26:19;99925.73;;;6.47;66.34
77005;BME280;67261;53.132;18.006;2023-02-21T04:28:50;99924.73;;;6.48;66.34
77005;BME280;67261;53.132;18.006;2023-02-21T04:31:18;99931.74;;;6.50;66.28
77005;BME280;67261;53.132;18.006;2023-02-21T04:33:45;99920.61;;;6.54;66.18
77005;BME280;67261;53.132;18.006;2023-02-21T04:36:19;99918.79;;;6.59;66.07
77005;BME280;67261;53.132;18.006;2023-02-21T04:38:46;99928.20;;;6.61;65.96
77005;BME280;67261;53.132;18.006;2023-02-21T04:41:13;99922.23;;;6.63;65.73
77005;BME280;67261;53.132;18.006;2023-02-21T04:43:42;99926.27;;;6.64;65.90
77005;BME280;67261;53.132;18.006;2023-02-21T04:46:14;99929.98;;;6.66;65.88
77005;BME280;67261;53.132;18.006;2023-02-21T04:48:51;99936.56;;;6.67;65.84
77005;BME280;67261;53.132;18.006;2023-02-21T04:51:24;99927.83;;;6.68;65.77
77005;BME280;67261;53.132;18.006;2023-02-21T04:53:53;99929.48;;;6.69;65.88
77005;BME280;67261;53.132;18.006;2023-02-21T04:56:33;99936.36;;;6.69;65.85
77005;BME280;67261;53.132;18.006;2023-02-21T04:59:03;99933.10;;;6.70;65.90
77005;BME280;67261;53.132;18.006;2023-02-21T05:01:31;99933.94;;;6.73;65.67
77005;BME280;67261;53.132;18.006;2023-02-21T05:03:59;99934.70;;;6.76;65.69
77005;BME280;67261;53.132;18.006;2023-02-21T05:06:28;99939.97;;;6.80;65.67
77005;BME280;67261;53.132;18.006;2023-02-21T05:08:56;99937.61;;;6.80;65.65
77005;BME280;67261;53.132;18.006;2023-02-21T05:11:23;99936.58;;;6.80;65.64
77005;BME280;67261;53.132;18.006;2023-02-21T05:13:51;99937.15;;;6.80;65.61
77005;BME280;67261;53.132;18.006;2023-02-21T05:16:19;99941.27;;;6.79;65.74
77005;BME280;67261;53.132;18.006;2023-02-21T05:18:47;99940.30;;;6.78;65.63
77005;BME280;67261;53.132;18.006;2023-02-21T05:21:18;99939.80;;;6.78;65.93
77005;BME280;67261;53.132;18.006;2023-02-21T05:23:46;99935.57;;;6.74;66.07
77005;BME280;67261;53.132;18.006;2023-02-21T05:26:25;99944.36;;;6.70;66.38
77005;BME280;67261;53.132;18.006;2023-02-21T05:28:53;99952.90;;;6.67;66.68
77005;BME280;67261;53.132;18.006;2023-02-21T05:31:21;99957.93;;;6.66;66.96
77005;BME280;67261;53.132;18.006;2023-02-21T05:33:48;99963.69;;;6.68;67.18
77005;BME280;67261;53.132;18.006;2023-02-21T05:36:16;99971.30;;;6.68;67.38
77005;BME280;67261;53.132;18.006;2023-02-21T05:38:46;99974.39;;;6.65;67.39
77005;BME280;67261;53.132;18.006;2023-02-21T05:41:15;99969.60;;;6.64;67.74
77005;BME280;67261;53.132;18.006;2023-02-21T05:43:47;99961.70;;;6.60;67.80
77005;BME280;67261;53.132;18.006;2023-02-21T05:46:26;99965.56;;;6.56;67.84
77005;BME280;67261;53.132;18.006;2023-02-21T05:48:54;99967.09;;;6.53;67.95
77005;BME280;67261;53.132;18.006;2023-02-21T05:51:22;99970.73;;;6.50;68.10
77005;BME280;67261;53.132;18.006;2023-02-21T05:53:50;99979.98;;;6.47;68.22
77005;BME280;67261;53.132;18.006;2023-02-21T05:56:18;99982.02;;;6.46;68.35
77005;BME280;67261;53.132;18.006;2023-02-21T05:58:46;99987.47;;;6.46;68.46
77005;BME280;67261;53.132;18.006;2023-02-21T06:01:16;99995.69;;;6.45;68.55
77005;BME280;67261;53.132;18.006;2023-02-21T06:03:44;99988.79;;;6.43;68.84
77005;BME280;67261;53.132;18.006;2023-02-21T06:06:15;99983.60;;;6.43;68.85
77005;BME280;67261;53.132;18.006;2023-02-21T06:08:47;99983.52;;;6.44;68.94
77005;BME280;67261;53.132;18.006;2023-02-21T06:11:21;99982.13;;;6.43;68.94
77005;BME280;67261;53.132;18.006;2023-02-21T06:13:51;99991.02;;;6.42;68.98
77005;BME280;67261;53.132;18.006;2023-02-21T06:16:19;99997.33;;;6.44;68.79
77005;BME280;67261;53.132;18.006;2023-02-21T06:18:55;99999.63;;;6.48;68.71
77005;BME280;67261;53.132;18.006;2023-02-21T06:21:22;99998.08;;;6.51;68.68
77005;BME280;67261;53.132;18.006;2023-02-21T06:23:49;100002.45;;;6.55;68.48
77005;BME280;67261;53.132;18.006;2023-02-21T06:26:17;100004.82;;;6.58;68.43
77005;BME280;67261;53.132;18.006;2023-02-21T06:28:45;100009.36;;;6.60;68.29
77005;BME280;67261;53.132;18.006;2023-02-21T06:31:12;100007.68;;;6.61;68.29
77005;BME280;67261;53.132;18.006;2023-02-21T06:33:40;100014.02;;;6.63;68.21
77005;BME280;67261;53.132;18.006;2023-02-21T06:36:12;100006.81;;;6.64;67.98
77005;BME280;67261;53.132;18.006;2023-02-21T06:38:46;100011.74;;;6.66;67.78
77005;BME280;67261;53.132;18.006;2023-02-21T06:41:19;100005.15;;;6.67;67.75
77005;BME280;67261;53.132;18.006;2023-02-21T06:43:47;100016.33;;;6.69;67.49
77005;BME280;67261;53.132;18.006;2023-02-21T06:46:16;100019.76;;;6.75;67.23
77005;BME280;67261;53.132;18.006;2023-02-21T06:48:44;100017.51;;;6.80;67.16
77005;BME280;67261;53.132;18.006;2023-02-21T06:51:11;100024.10;;;6.82;67.01
77005;BME280;67261;53.132;18.006;2023-02-21T06:53:41;100027.29;;;6.86;66.96
77005;BME280;67261;53.132;18.006;2023-02-21T06:56:09;100033.42;;;6.90;66.85
77005;BME280;67261;53.132;18.006;2023-02-21T06:58:37;100033.97;;;6.91;66.74
77005;BME280;67261;53.132;18.006;2023-02-21T07:01:04;100042.56;;;6.93;66.63
77005;BME280;67261;53.132;18.006;2023-02-21T07:03:32;100047.45;;;6.93;66.49
77005;BME280;67261;53.132;18.006;2023-02-21T07:05:59;100054.23;;;6.92;66.59
77005;BME280;67261;53.132;18.006;2023-02-21T07:08:26;100060.14;;;6.93;66.65
77005;BME280;67261;53.132;18.006;2023-02-21T07:10:53;100064.50;;;6.94;66.57
77005;BME280;67261;53.132;18.006;2023-02-21T07:13:23;100063.62;;;6.97;66.30
77005;BME280;67261;53.132;18.006;2023-02-21T07:15:50;100068.98;;;7.01;66.22
77005;BME280;67261;53.132;18.006;2023-02-21T07:18:17;100079.69;;;7.04;66.09
77005;BME280;67261;53.132;18.006;2023-02-21T07:20:44;100082.69;;;7.05;66.12
77005;BME280;67261;53.132;18.006;2023-02-21T07:23:11;100084.88;;;7.06;66.02
77005;BME280;67261;53.132;18.006;2023-02-21T07:25:40;100088.64;;;7.07;66.01
77005;BME280;67261;53.132;18.006;2023-02-21T07:28:08;100095.60;;;7.08;65.83
77005;BME280;67261;53.132;18.006;2023-02-21T07:30:35;100098.85;;;7.07;65.89
77005;BME280;67261;53.132;18.006;2023-02-21T07:33:02;100105.38;;;7.07;65.83
77005;BME280;67261;53.132;18.006;2023-02-21T07:35:29;100114.74;;;7.08;65.86
77005;BME280;67261;53.132;18.006;2023-02-21T07:37:56;100115.85;;;7.10;65.84
77005;BME280;67261;53.132;18.006;2023-02-21T07:40:24;100124.84;;;7.11;65.78
77005;BME280;67261;53.132;18.006;2023-02-21T07:42:52;100128.93;;;7.14;65.61
77005;BME280;67261;53.132;18.006;2023-02-21T07:45:25;100130.14;;;7.18;65.21
77005;BME280;67261;53.132;18.006;2023-02-21T07:47:52;100131.85;;;7.21;65.61
77005;BME280;67261;53.132;18.006;2023-02-21T07:50:23;100137.80;;;7.23;65.49
77005;BME280;67261;53.132;18.006;2023-02-21T07:52:50;100144.11;;;7.25;65.42
77005;BME280;67261;53.132;18.006;2023-02-21T07:55:17;100145.55;;;7.28;65.31
77005;BME280;67261;53.132;18.006;2023-02-21T07:57:45;100149.60;;;7.32;65.40
77005;BME280;67261;53.132;18.006;2023-02-21T08:00:13;100148.99;;;7.34;65.27
77005;BME280;67261;53.132;18.006;2023-02-21T08:02:40;100155.30;;;7.35;65.07
77005;BME280;67261;53.132;18.006;2023-02-21T08:05:08;100156.98;;;7.36;65.15
77005;BME280;67261;53.132;18.006;2023-02-21T08:07:42;100165.21;;;7.38;65.26
77005;BME280;67261;53.132;18.006;2023-02-21T08:10:09;100172.05;;;7.40;65.18
77005;BME280;67261;53.132;18.006;2023-02-21T08:12:37;100179.77;;;7.40;65.11
77005;BME280;67261;53.132;18.006;2023-02-21T08:15:05;100188.36;;;7.42;65.16
77005;BME280;67261;53.132;18.006;2023-02-21T08:17:32;100186.73;;;7.48;65.09
77005;BME280;67261;53.132;18.006;2023-02-21T08:19:59;100189.45;;;7.53;65.14
77005;BME280;67261;53.132;18.006;2023-02-21T08:22:27;100189.55;;;7.55;64.91
77005;BME280;67261;53.132;18.006;2023-02-21T08:24:54;100197.77;;;7.56;65.08
77005;BME280;67261;53.132;18.006;2023-02-21T08:27:21;100201.09;;;7.56;65.21
77005;BME280;67261;53.132;18.006;2023-02-21T08:29:51;100205.75;;;7.59;65.08
77005;BME280;67261;53.132;18.006;2023-02-21T08:32:19;100206.31;;;7.59;64.83
77005;BME280;67261;53.132;18.006;2023-02-21T08:34:47;100211.89;;;7.55;65.01
77005;BME280;67261;53.132;18.006;2023-02-21T08:37:15;100215.58;;;7.56;65.09
77005;BME280;67261;53.132;18.006;2023-02-21T08:39:49;100218.10;;;7.55;64.73
77005;BME280;67261;53.132;18.006;2023-02-21T08:42:18;100220.79;;;7.56;65.01
77005;BME280;67261;53.132;18.006;2023-02-21T08:44:46;100222.69;;;7.57;64.99
77005;BME280;67261;53.132;18.006;2023-02-21T08:47:14;100225.32;;;7.55;64.90
77005;BME280;67261;53.132;18.006;2023-02-21T08:49:46;100232.38;;;7.57;64.77
77005;BME280;67261;53.132;18.006;2023-02-21T08:52:17;100230.77;;;7.61;64.39
77005;BME280;67261;53.132;18.006;2023-02-21T08:54:46;100236.45;;;7.64;64.26
77005;BME280;67261;53.132;18.006;2023-02-21T08:57:13;100235.38;;;7.66;64.25
77005;BME280;67261;53.132;18.006;2023-02-21T08:59:42;100233.33;;;7.69;64.22
77005;BME280;67261;53.132;18.006;2023-02-21T09:04:42;100234.86;;;7.73;64.14
77005;BME280;67261;53.132;18.006;2023-02-21T09:07:14;100239.78;;;7.73;64.36
77005;BME280;67261;53.132;18.006;2023-02-21T09:09:42;100244.73;;;7.75;64.38
77005;BME280;67261;53.132;18.006;2023-02-21T09:12:10;100246.87;;;7.77;64.29
77005;BME280;67261;53.132;18.006;2023-02-21T09:14:38;100252.71;;;7.76;64.33
77005;BME280;67261;53.132;18.006;2023-02-21T09:17:10;100253.73;;;7.75;64.22
77005;BME280;67261;53.132;18.006;2023-02-21T09:19:39;100267.54;;;7.76;63.99
77005;BME280;67261;53.132;18.006;2023-02-21T09:22:07;100265.80;;;7.78;64.11
77005;BME280;67261;53.132;18.006;2023-02-21T09:24:34;100271.71;;;7.80;64.21
77005;BME280;67261;53.132;18.006;2023-02-21T09:27:01;100271.98;;;7.84;64.05
77005;BME280;67261;53.132;18.006;2023-02-21T09:29:32;100277.44;;;7.86;63.88
77005;BME280;67261;53.132;18.006;2023-02-21T09:32:00;100281.22;;;7.89;63.96
77005;BME280;67261;53.132;18.006;2023-02-21T09:34:28;100284.93;;;7.92;63.85
77005;BME280;67261;53.132;18.006;2023-02-21T09:36:56;100282.66;;;7.96;64.06
77005;BME280;67261;53.132;18.006;2023-02-21T09:39:25;100291.06;;;7.98;64.02
77005;BME280;67261;53.132;18.006;2023-02-21T09:41:52;100293.37;;;8.00;64.09
77005;BME280;67261;53.132;18.006;2023-02-21T09:44:26;100296.63;;;8.01;63.96
77005;BME280;67261;53.132;18.006;2023-02-21T09:47:01;100296.77;;;8.08;63.97
77005;BME280;67261;53.132;18.006;2023-02-21T09:49:38;100299.20;;;8.16;63.89
77005;BME280;67261;53.132;18.006;2023-02-21T09:52:17;100299.31;;;8.22;63.92
77005;BME280;67261;53.132;18.006;2023-02-21T09:54:51;100298.23;;;8.26;63.69
77005;BME280;67261;53.132;18.006;2023-02-21T09:57:22;100307.52;;;8.28;63.78
77005;BME280;67261;53.132;18.006;2023-02-21T09:59:50;100313.20;;;8.26;63.63
77005;BME280;67261;53.132;18.006;2023-02-21T10:05:21;100318.08;;;8.25;63.77
77005;BME280;67261;53.132;18.006;2023-02-21T10:08:22;100320.52;;;8.27;63.65
77005;BME280;67261;53.132;18.006;2023-02-21T10:10:56;100329.39;;;8.26;63.32
77005;BME280;67261;53.132;18.006;2023-02-21T10:13:45;100323.06;;;8.28;63.25
77005;BME280;67261;53.132;18.006;2023-02-21T10:16:33;100325.65;;;8.25;63.18
77005;BME280;67261;53.132;18.006;2023-02-21T10:21:47;100339.55;;;8.23;63.18
77005;BME280;67261;53.132;18.006;2023-02-21T10:24:21;100341.67;;;8.23;63.06
77005;BME280;67261;53.132;18.006;2023-02-21T10:27:04;100343.20;;;8.24;62.84
77005;BME280;67261;53.132;18.006;2023-02-21T10:29:39;100344.27;;;8.26;62.82
77005;BME280;67261;53.132;18.006;2023-02-21T10:32:10;100336.89;;;8.29;62.79
77005;BME280;67261;53.132;18.006;2023-02-21T10:34:37;100341.52;;;8.36;62.87
77005;BME280;67261;53.132;18.006;2023-02-21T10:39:57;100351.03;;;8.47;62.14
77005;BME280;67261;53.132;18.006;2023-02-21T10:45:06;100358.08;;;8.57;61.85
77005;BME280;67261;53.132;18.006;2023-02-21T10:48:00;100355.98;;;8.59;61.69
77005;BME280;67261;53.132;18.006;2023-02-21T10:53:33;100368.48;;;8.65;61.29
77005;BME280;67261;53.132;18.006;2023-02-21T10:58:58;100369.41;;;8.66;61.47
77005;BME280;67261;53.132;18.006;2023-02-21T11:04:21;100369.91;;;8.72;60.84
77005;BME280;67261;53.132;18.006;2023-02-21T11:06:53;100375.81;;;8.74;60.73
77005;BME280;67261;53.132;18.006;2023-02-21T11:09:42;100376.64;;;8.77;60.97
77005;BME280;67261;53.132;18.006;2023-02-21T11:12:29;100380.73;;;8.82;61.02
77005;BME280;67261;53.132;18.006;2023-02-21T11:17:26;100387.65;;;8.81;61.11
77005;BME280;67261;53.132;18.006;2023-02-21T11:22:40;100390.86;;;8.84;61.03
77005;BME280;67261;53.132;18.006;2023-02-21T11:25:32;100396.13;;;8.88;60.89
77005;BME280;67261;53.132;18.006;2023-02-21T11:28:18;100390.56;;;8.91;60.80
77005;BME280;67261;53.132;18.006;2023-02-21T11:33:25;100402.83;;;8.94;60.84
77005;BME280;67261;53.132;18.006;2023-02-21T11:36:07;100404.80;;;8.91;60.75
77005;BME280;67261;53.132;18.006;2023-02-21T11:38:44;100408.26;;;8.90;60.84
77005;BME280;67261;53.132;18.006;2023-02-21T11:43:51;100410.02;;;8.87;61.06
77005;BME280;67261;53.132;18.006;2023-02-21T11:46:43;100411.36;;;8.90;61.08
77005;BME280;67261;53.132;18.006;2023-02-21T11:51:45;100413.34;;;8.82;60.83
77005;BME280;67261;53.132;18.006;2023-02-21T11:54:13;100406.77;;;8.81;61.14
77005;BME280;67261;53.132;18.006;2023-02-21T11:57:15;100408.35;;;8.83;61.18
77005;BME280;67261;53.132;18.006;2023-02-21T12:02:48;100412.54;;;8.88;61.16
77005;BME280;67261;53.132;18.006;2023-02-21T12:11:17;100414.79;;;9.15;60.68
77005;BME280;67261;53.132;18.006;2023-02-21T12:14:16;100411.10;;;9.26;60.27
77005;BME280;67261;53.132;18.006;2023-02-21T12:16:54;100412.91;;;9.34;60.28
77005;BME280;67261;53.132;18.006;2023-02-21T12:30:30;100428.58;;;9.64;59.89
77005;BME280;67261;53.132;18.006;2023-02-21T12:36:01;100429.72;;;9.67;59.38
77005;BME280;67261;53.132;18.006;2023-02-21T12:44:22;100436.14;;;9.61;59.25
77005;BME280;67261;53.132;18.006;2023-02-21T12:47:02;100435.88;;;9.60;59.30
77005;BME280;67261;53.132;18.006;2023-02-21T12:52:16;100441.25;;;9.54;59.53
77005;BME280;67261;53.132;18.006;2023-02-21T12:57:58;100440.59;;;9.57;59.60
77005;BME280;67261;53.132;18.006;2023-02-21T13:01:01;100442.66;;;9.52;59.51
77005;BME280;67261;53.132;18.006;2023-02-21T13:06:42;100446.67;;;9.54;59.18
77005;BME280;67261;53.132;18.006;2023-02-21T13:09:31;100449.93;;;9.57;59.36
77005;BME280;67261;53.132;18.006;2023-02-21T13:12:08;100451.69;;;9.55;59.41
77005;BME280;67261;53.132;18.006;2023-02-21T13:14:47;100450.44;;;9.52;59.22
77005;BME280;67261;53.132;18.006;2023-02-21T13:17:16;100453.00;;;9.49;59.24
77005;BME280;67261;53.132;18.006;2023-02-21T13:19:48;100456.39;;;9.47;59.39
77005;BME280;67261;53.132;18.006;2023-02-21T13:22:22;100456.61;;;9.49;59.37
77005;BME280;67261;53.132;18.006;2023-02-21T13:28:22;100459.91;;;9.48;59.30
77005;BME280;67261;53.132;18.006;2023-02-21T13:30:53;100458.84;;;9.42;58.94
77005;BME280;67261;53.132;18.006;2023-02-21T13:33:35;100463.33;;;9.36;58.99
77005;BME280;67261;53.132;18.006;2023-02-21T13:41:50;100465.23;;;9.49;59.26
77005;BME280;67261;53.132;18.006;2023-02-21T13:44:22;100476.75;;;9.49;59.15
77005;BME280;67261;53.132;18.006;2023-02-21T13:57:49;100484.31;;;9.43;58.71
77005;BME280;67261;53.132;18.006;2023-02-21T14:05:24;100497.80;;;9.41;59.26
77005;BME280;67261;53.132;18.006;2023-02-21T14:08:04;100499.02;;;9.38;58.81
77005;BME280;67261;53.132;18.006;2023-02-21T14:10:45;100504.01;;;9.32;58.83
77005;BME280;67261;53.132;18.006;2023-02-21T14:13:53;100507.14;;;9.22;59.34
77005;BME280;67261;53.132;18.006;2023-02-21T14:16:26;100513.86;;;9.17;59.52
77005;BME280;67261;53.132;18.006;2023-02-21T14:21:46;100520.77;;;9.11;59.65
77005;BME280;67261;53.132;18.006;2023-02-21T14:24:19;100521.36;;;9.08;59.69
77005;BME280;67261;53.132;18.006;2023-02-21T14:27:00;100522.98;;;9.10;59.94
77005;BME280;67261;53.132;18.006;2023-02-21T14:29:39;100527.98;;;9.11;59.70
77005;BME280;67261;53.132;18.006;2023-02-21T14:37:40;100533.69;;;9.14;59.82
77005;BME280;67261;53.132;18.006;2023-02-21T14:48:12;100554.05;;;9.01;59.83
77005;BME280;67261;53.132;18.006;2023-02-21T14:50:51;100555.04;;;8.96;60.23
77005;BME280;67261;53.132;18.006;2023-02-21T14:57:06;100562.57;;;8.84;60.24
77005;BME280;67261;53.132;18.006;2023-02-21T15:02:46;100568.89;;;8.79;60.52
77005;BME280;67261;53.132;18.006;2023-02-21T15:05:27;100564.65;;;8.73;60.67
77005;BME280;67261;53.132;18.006;2023-02-21T15:10:39;100579.10;;;8.64;60.82
77005;BME280;67261;53.132;18.006;2023-02-21T15:13:23;100586.09;;;8.59;60.82
77005;BME280;67261;53.132;18.006;2023-02-21T15:16:12;100585.72;;;8.54;61.05
77005;BME280;67261;53.132;18.006;2023-02-21T15:18:59;100588.27;;;8.51;61.20
77005;BME280;67261;53.132;18.006;2023-02-21T15:21:26;100586.08;;;8.48;61.26
77005;BME280;67261;53.132;18.006;2023-02-21T15:24:10;100594.98;;;8.47;61.30
77005;BME280;67261;53.132;18.006;2023-02-21T15:26:39;100595.31;;;8.44;61.42
77005;BME280;67261;53.132;18.006;2023-02-21T15:29:12;100599.00;;;8.40;61.59
77005;BME280;67261;53.132;18.006;2023-02-21T15:34:25;100600.34;;;8.35;61.56
77005;BME280;67261;53.132;18.006;2023-02-21T15:37:11;100608.09;;;8.34;61.64
77005;BME280;67261;53.132;18.006;2023-02-21T15:39:47;100609.92;;;8.31;61.84
77005;BME280;67261;53.132;18.006;2023-02-21T15:42:18;100612.16;;;8.27;61.99
77005;BME280;67261;53.132;18.006;2023-02-21T15:44:58;100615.20;;;8.23;61.83
77005;BME280;67261;53.132;18.006;2023-02-21T15:47:28;100621.08;;;8.17;61.89
77005;BME280;67261;53.132;18.006;2023-02-21T15:50:07;100618.56;;;8.10;62.01
77005;BME280;67261;53.132;18.006;2023-02-21T15:52:41;100626.30;;;8.04;62.20
77005;BME280;67261;53.132;18.006;2023-02-21T16:03:50;100630.46;;;7.78;62.28
77005;BME280;67261;53.132;18.006;2023-02-21T16:06:23;100635.91;;;7.71;62.56
77005;BME280;67261;53.132;18.006;2023-02-21T16:11:47;100641.80;;;7.54;62.87
77005;BME280;67261;53.132;18.006;2023-02-21T16:14:18;100646.84;;;7.47;63.03
77005;BME280;67261;53.132;18.006;2023-02-21T16:16:48;100643.98;;;7.41;63.09
77005;BME280;67261;53.132;18.006;2023-02-21T16:19:21;100649.10;;;7.37;63.22
77005;BME280;67261;53.132;18.006;2023-02-21T16:22:09;100651.17;;;7.36;63.28